Time;durP1;ratioP1;P1;durP2;ratioP2;P2;SDS_P1;SDS_P2;PMS_P1;PMS_P2;Temp;Humidity;BMP_temperature;BMP_pressure;BME280_temperature;BME280_humidity;BME280_pressure;Samples;Min_cycle;Max_cycle;Signal;HPM_P1;HPM_P2
2023/11/29 00:00:12;;;;;;;21.75;16.98;;;;;21.50;99306.00;;;;2070717;28;20222;-55
2023/11/29 00:01:12;;;;;;;19.43;13.93;;;;;21.50;99310.00;;;;2069882;28;20745;-56
2023/11/29 00:02:13;;;;;;;20.00;15.00;;;;;21.50;99334.00;;;;2064987;28;20220;-55
2023/11/29 00:03:13;;;;;;;21.97;15.73;;;;;21.50;99310.00;;;;2069472;28;22148;-55
2023/11/29 00:04:14;;;;;;;19.37;14.53;;;;;21.50;99309.00;;;;2066918;28;20783;-55
2023/11/29 00:05:16;;;;;;;20.33;15.65;;;;;21.50;99311.00;;;;2083039;28;20213;-55
2023/11/29 00:06:16;;;;;;;22.50;15.57;;;;;21.50;99306.00;;;;2071757;28;20223;-56
2023/11/29 00:07:17;;;;;;;20.17;15.70;;;;;21.50;99299.00;;;;2062179;28;20765;-56
2023/11/29 00:08:19;;;;;;;17.63;14.83;;;;;21.50;99314.00;;;;2069612;28;20670;-55
2023/11/29 00:09:19;;;;;;;18.23;14.45;;;;;21.50;99312.00;;;;2064175;28;20221;-55
2023/11/29 00:10:22;;;;;;;19.27;14.40;;;;;21.50;99299.00;;;;2071636;28;20236;-55
2023/11/29 00:11:22;;;;;;;18.27;13.85;;;;;21.50;99284.00;;;;2067993;28;20245;-56
2023/11/29 00:12:23;;;;;;;19.20;15.37;;;;;21.50;99297.00;;;;2069953;28;20217;-55
2023/11/29 00:13:23;;;;;;;21.57;14.33;;;;;21.30;99294.00;;;;2070410;28;20216;-56
2023/11/29 00:14:23;;;;;;;19.00;14.60;;;;;21.50;99293.00;;;;2054274;28;20214;-56
2023/11/29 00:15:24;;;;;;;18.20;13.53;;;;;21.50;99305.00;;;;2075469;28;20280;-58
2023/11/29 00:16:24;;;;;;;19.30;13.97;;;;;21.50;99289.00;;;;2074045;28;20251;-58
2023/11/29 00:17:24;;;;;;;18.70;13.73;;;;;21.40;99289.00;;;;2068899;28;20396;-56
2023/11/29 00:18:25;;;;;;;18.50;14.43;;;;;21.40;99331.00;;;;2066734;28;20217;-58
2023/11/29 00:19:25;;;;;;;18.40;13.90;;;;;21.40;99315.00;;;;2064860;28;20576;-55
2023/11/29 00:20:25;;;;;;;18.30;13.97;;;;;21.40;99350.00;;;;2077579;28;20744;-56
2023/11/29 00:21:27;;;;;;;16.63;13.73;;;;;21.40;99289.00;;;;2069197;28;20763;-55
2023/11/29 00:22:29;;;;;;;18.85;14.35;;;;;21.40;99296.00;;;;2069549;28;20726;-55
2023/11/29 00:23:31;;;;;;;14.90;12.73;;;;;21.40;99285.00;;;;2067492;28;20202;-58
2023/11/29 00:24:31;;;;;;;17.02;13.30;;;;;21.40;99279.00;;;;2058000;28;20284;-56
2023/11/29 00:25:32;;;;;;;17.40;13.43;;;;;21.40;99280.00;;;;2070470;28;20245;-56
2023/11/29 00:26:32;;;;;;;15.30;12.93;;;;;21.40;99282.00;;;;2070065;28;20198;-55
2023/11/29 00:27:32;;;;;;;15.73;12.70;;;;;21.40;99278.00;;;;2066965;28;20213;-55
2023/11/29 00:28:33;;;;;;;17.90;14.67;;;;;21.40;99278.00;;;;2068143;28;20199;-55
2023/11/29 00:29:33;;;;;;;16.40;12.90;;;;;21.40;99276.00;;;;2059789;28;20236;-55
2023/11/29 00:30:33;;;;;;;16.30;12.23;;;;;21.40;99278.00;;;;2068525;28;20218;-56
2023/11/29 00:31:34;;;;;;;14.90;12.43;;;;;21.40;99272.00;;;;2069941;28;20226;-55
2023/11/29 00:32:34;;;;;;;15.43;12.40;;;;;21.40;99280.00;;;;2069072;28;20214;-55
2023/11/29 00:33:35;;;;;;;14.97;12.13;;;;;21.40;99275.00;;;;2067466;28;20215;-55
2023/11/29 00:34:35;;;;;;;14.43;11.53;;;;;21.40;99288.00;;;;2056972;28;20221;-55
2023/11/29 00:35:35;;;;;;;15.13;11.53;;;;;21.40;99272.00;;;;2070318;28;20583;-55
2023/11/29 00:36:36;;;;;;;17.33;12.07;;;;;21.40;99389.00;;;;2069521;28;21023;-55
2023/11/29 00:37:36;;;;;;;15.40;12.03;;;;;21.40;99269.00;;;;2069775;28;20714;-55
2023/11/29 00:38:36;;;;;;;15.43;11.10;;;;;21.40;99267.00;;;;2069726;28;20246;-55
2023/11/29 00:39:37;;;;;;;17.37;12.57;;;;;21.40;99270.00;;;;2066078;28;20210;-55
2023/11/29 00:40:37;;;;;;;14.77;11.53;;;;;21.40;99266.00;;;;2077606;28;20731;-55
2023/11/29 00:41:38;;;;;;;15.97;11.67;;;;;21.40;99257.00;;;;2069622;28;20252;-55
2023/11/29 00:42:38;;;;;;;14.30;11.60;;;;;21.40;99263.00;;;;2070645;28;20253;-56
2023/11/29 00:43:39;;;;;;;16.93;11.93;;;;;21.30;99256.00;;;;2066326;28;20234;-56
2023/11/29 00:44:39;;;;;;;13.17;11.20;;;;;21.30;99254.00;;;;2060758;28;20217;-55
2023/11/29 00:45:39;;;;;;;16.87;12.00;;;;;21.30;99255.00;;;;2069488;28;20234;-56
2023/11/29 00:46:40;;;;;;;13.37;11.33;;;;;21.30;99252.00;;;;2069783;28;20213;-55
2023/11/29 00:47:40;;;;;;;11.10;10.00;;;;;21.30;99256.00;;;;2070610;28;20214;-55
2023/11/29 00:48:41;;;;;;;15.60;10.90;;;;;21.30;99254.00;;;;2069829;28;20207;-56
2023/11/29 00:49:41;;;;;;;13.27;10.57;;;;;21.30;99247.00;;;;2060959;28;20217;-56
2023/11/29 00:50:41;;;;;;;13.90;11.37;;;;;21.30;99243.00;;;;2069977;28;20209;-55
2023/11/29 00:51:42;;;;;;;16.10;11.67;;;;;21.30;99246.00;;;;2067937;28;20226;-55
2023/11/29 00:52:42;;;;;;;13.17;10.50;;;;;21.30;99239.00;;;;2070422;28;20268;-56
2023/11/29 00:53:43;;;;;;;12.73;10.60;;;;;21.30;99239.00;;;;2068414;28;20229;-56
2023/11/29 00:54:45;;;;;;;15.18;11.05;;;;;21.30;99247.00;;;;2060594;28;20218;-56
2023/11/29 00:55:45;;;;;;;12.88;10.48;;;;;21.30;99305.00;;;;2068929;28;20222;-55
2023/11/29 00:56:46;;;;;;;12.73;10.30;;;;;21.20;99229.00;;;;2067766;28;20226;-56
2023/11/29 00:57:46;;;;;;;12.93;9.80;;;;;21.30;99229.00;;;;2066461;28;20264;-56
2023/11/29 00:58:46;;;;;;;11.57;10.10;;;;;21.30;99231.00;;;;2070407;28;20318;-56
2023/11/29 00:59:48;;;;;;;14.67;10.40;;;;;21.30;99236.00;;;;2060842;28;21323;-56
2023/11/29 01:00:48;;;;;;;15.07;10.00;;;;;21.30;99238.00;;;;2069463;28;20226;-53
2023/11/29 01:01:48;;;;;;;13.07;10.33;;;;;21.30;99231.00;;;;2070505;28;20218;-55
2023/11/29 01:02:48;;;;;;;14.47;9.90;;;;;21.30;99232.00;;;;2065913;28;20214;-57
2023/11/29 01:03:49;;;;;;;14.80;9.77;;;;;21.30;99230.00;;;;2069403;28;20221;-56
2023/11/29 01:04:50;;;;;;;12.20;9.50;;;;;21.30;99224.00;;;;2059739;28;20221;-55
2023/11/29 01:05:51;;;;;;;14.02;10.38;;;;;21.30;99227.00;;;;2069994;28;20813;-55
2023/11/29 01:06:51;;;;;;;11.20;9.17;;;;;21.30;99238.00;;;;2069617;28;20233;-56
2023/11/29 01:07:52;;;;;;;15.90;10.37;;;;;21.30;99240.00;;;;2067967;28;20237;-56
2023/11/29 01:08:52;;;;;;;11.57;9.17;;;;;21.30;99234.00;;;;2060183;28;20218;-55
2023/11/29 01:09:52;;;;;;;13.00;9.60;;;;;21.30;99234.00;;;;2069884;28;20319;-54
2023/11/29 01:10:54;;;;;;;14.00;9.57;;;;;21.30;99227.00;;;;2067871;28;20221;-54
2023/11/29 01:11:54;;;;;;;12.15;9.10;;;;;21.30;99226.00;;;;2068770;28;20228;-55
2023/11/29 01:12:55;;;;;;;13.13;8.80;;;;;21.20;99226.00;;;;2069310;28;20261;-54
2023/11/29 01:13:55;;;;;;;11.33;8.93;;;;;21.20;99212.00;;;;2059230;28;20311;-55
2023/11/29 01:14:55;;;;;;;12.83;8.83;;;;;21.20;99227.00;;;;2069098;28;20222;-55
2023/11/29 01:15:56;;;;;;;11.70;9.13;;;;;21.10;99224.00;;;;2070017;28;20230;-55
2023/11/29 01:16:57;;;;;;;12.60;8.90;;;;;21.20;99214.00;;;;2066908;28;20488;-55
2023/11/29 01:17:59;;;;;;;10.98;9.05;;;;;21.20;99225.00;;;;2061451;28;20577;-55
2023/11/29 01:18:59;;;;;;;12.33;9.70;;;;;21.20;99228.00;;;;2059428;28;20221;-54
2023/11/29 01:19:59;;;;;;;10.77;9.03;;;;;21.20;99223.00;;;;2069803;28;20202;-58
2023/11/29 01:21:00;;;;;;;12.10;8.57;;;;;21.20;99219.00;;;;2070098;28;20226;-58
2023/11/29 01:22:00;;;;;;;14.90;9.33;;;;;21.20;99219.00;;;;2069717;28;20276;-55
2023/11/29 01:23:01;;;;;;;10.70;8.33;;;;;21.20;99221.00;;;;2069617;28;20284;-57
2023/11/29 01:24:01;;;;;;;13.40;8.13;;;;;21.20;99283.00;;;;2059943;28;20706;-56
2023/11/29 01:25:01;;;;;;;9.80;8.13;;;;;21.20;99222.00;;;;2070346;28;20594;-55
2023/11/29 01:26:02;;;;;;;11.90;8.10;;;;;21.10;99220.00;;;;2070369;28;20630;-55
2023/11/29 01:27:02;;;;;;;11.23;8.47;;;;;21.10;99213.00;;;;2061624;28;20215;-55
2023/11/29 01:28:05;;;;;;;14.00;9.00;;;;;21.20;99212.00;;;;2070032;28;20265;-56
2023/11/29 01:29:05;;;;;;;10.93;7.63;;;;;21.20;99218.00;;;;2059654;28;20249;-55
2023/11/29 01:30:07;;;;;;;12.47;8.27;;;;;21.20;99220.00;;;;2070123;28;20560;-55
2023/11/29 01:31:07;;;;;;;10.10;8.07;;;;;21.20;99220.00;;;;2067151;28;20229;-56
2023/11/29 01:32:07;;;;;;;11.63;7.50;;;;;21.20;99225.00;;;;2062831;28;20238;-55
2023/11/29 01:33:08;;;;;;;11.33;8.43;;;;;21.20;99217.00;;;;2061461;28;20363;-55
2023/11/29 01:34:08;;;;;;;9.93;7.77;;;;;21.20;99219.00;;;;2059798;28;20237;-55
2023/11/29 01:35:08;;;;;;;9.80;7.37;;;;;21.10;99214.00;;;;2065774;28;20307;-54
2023/11/29 01:36:10;;;;;;;8.80;7.20;;;;;21.20;99214.00;;;;2067831;28;20272;-56
2023/11/29 01:37:10;;;;;;;10.88;7.93;;;;;21.20;99212.00;;;;2066743;28;20302;-54
2023/11/29 01:38:10;;;;;;;10.53;7.47;;;;;21.10;99221.00;;;;2069186;28;20614;-56
2023/11/29 01:39:14;;;;;;;11.90;7.77;;;;;21.10;99220.00;;;;2059537;28;20599;-55
2023/11/29 01:40:14;;;;;;;9.00;6.88;;;;;21.10;99213.00;;;;2066539;28;20212;-56
2023/11/29 01:41:16;;;;;;;8.60;7.07;;;;;21.10;99015.00;;;;2062021;28;20265;-55
2023/11/29 01:42:17;;;;;;;9.65;7.15;;;;;21.10;99201.00;;;;2069614;28;20272;-55
2023/11/29 01:43:17;;;;;;;10.10;7.00;;;;;21.10;99216.00;;;;2066925;28;20223;-55
2023/11/29 01:44:17;;;;;;;9.50;6.80;;;;;21.10;99207.00;;;;2059979;28;20303;-56
2023/11/29 01:45:18;;;;;;;8.87;7.17;;;;;21.10;99209.00;;;;2067435;28;20218;-56
2023/11/29 01:46:19;;;;;;;9.10;6.40;;;;;21.10;99212.00;;;;2079077;28;20220;-55
2023/11/29 01:47:20;;;;;;;9.43;7.00;;;;;21.10;99205.00;;;;2084847;28;20745;-55
2023/11/29 01:48:20;;;;;;;9.40;6.63;;;;;21.10;99197.00;;;;2069402;28;20228;-55
2023/11/29 01:49:20;;;;;;;8.57;6.73;;;;;21.10;99204.00;;;;2059274;28;20218;-54
2023/11/29 01:50:21;;;;;;;9.73;7.10;;;;;21.10;99197.00;;;;2065613;28;20210;-55
2023/11/29 01:51:21;;;;;;;8.17;6.40;;;;;21.10;99199.00;;;;2069515;28;23044;-56
2023/11/29 01:52:22;;;;;;;8.50;7.10;;;;;21.10;99206.00;;;;2068914;28;20219;-55
2023/11/29 01:53:23;;;;;;;10.00;6.67;;;;;21.10;99196.00;;;;2064071;28;20254;-56
2023/11/29 01:54:24;;;;;;;9.43;7.05;;;;;21.10;99202.00;;;;2060592;28;20211;-56
2023/11/29 01:55:24;;;;;;;9.10;6.97;;;;;21.10;99193.00;;;;2073829;28;21018;-56
2023/11/29 01:56:24;;;;;;;8.80;7.07;;;;;21.10;99191.00;;;;2068893;28;20715;-54
2023/11/29 01:57:25;;;;;;;8.60;6.90;;;;;21.10;98973.00;;;;2067955;28;20218;-54
2023/11/29 01:58:26;;;;;;;7.93;6.20;;;;;21.10;99186.00;;;;2069894;28;20218;-56
2023/11/29 01:59:27;;;;;;;9.48;6.85;;;;;21.10;99187.00;;;;2057393;28;20245;-55
2023/11/29 02:00:27;;;;;;;8.83;6.60;;;;;21.10;99190.00;;;;2066778;28;20306;-54
2023/11/29 02:01:27;;;;;;;7.80;6.20;;;;;21.00;99188.00;;;;2069950;28;20214;-54
2023/11/29 02:02:28;;;;;;;7.57;6.77;;;;;21.00;99195.00;;;;2068430;28;20219;-55
2023/11/29 02:03:28;;;;;;;9.20;6.83;;;;;21.00;99182.00;;;;2061239;28;20249;-55
2023/11/29 02:04:28;;;;;;;8.40;6.60;;;;;21.00;99142.00;;;;2059356;28;20218;-56
2023/11/29 02:05:29;;;;;;;8.77;6.70;;;;;21.00;99181.00;;;;2075473;28;20260;-55
2023/11/29 02:06:30;;;;;;;8.93;5.87;;;;;21.10;99186.00;;;;2077272;28;20225;-56
2023/11/29 02:07:30;;;;;;;8.95;6.55;;;;;21.00;99188.00;;;;2067997;28;20222;-55
2023/11/29 02:08:31;;;;;;;8.20;6.57;;;;;21.00;99185.00;;;;2069205;28;20225;-55
2023/11/29 02:09:31;;;;;;;7.23;5.47;;;;;21.00;99183.00;;;;2058666;28;20202;-55
2023/11/29 02:10:32;;;;;;;11.17;5.90;;;;;19.70;99182.00;;;;2060853;28;20203;-55
2023/11/29 02:11:32;;;;;;;7.60;5.63;;;;;21.00;99179.00;;;;2076285;28;20224;-54
2023/11/29 02:12:33;;;;;;;6.87;5.90;;;;;21.00;99177.00;;;;2068256;28;21214;-54
2023/11/29 02:13:33;;;;;;;8.40;5.97;;;;;21.00;99181.00;;;;2068923;28;20217;-54
2023/11/29 02:14:41;;;;;;;8.07;5.77;;;;;21.00;99167.00;;;;2059395;28;20785;-54
2023/11/29 02:15:41;;;;;;;9.15;5.97;;;;;21.00;99169.00;;;;2069641;28;20218;-56
2023/11/29 02:16:41;;;;;;;6.40;5.23;;;;;21.00;99168.00;;;;2067429;28;20225;-55
2023/11/29 02:17:42;;;;;;;7.37;5.73;;;;;21.00;99169.00;;;;2068438;28;20230;-55
2023/11/29 02:18:42;;;;;;;6.43;5.67;;;;;21.00;99168.00;;;;2069968;28;20206;-54
2023/11/29 02:19:42;;;;;;;6.40;5.43;;;;;21.00;99180.00;;;;2059053;28;20245;-55
2023/11/29 02:20:43;;;;;;;9.33;5.50;;;;;21.00;99176.00;;;;2068450;28;20221;-56
2023/11/29 02:21:43;;;;;;;7.07;5.00;;;;;21.00;99177.00;;;;2060834;28;20218;-56
2023/11/29 02:22:49;;;;;;;7.07;6.10;;;;;21.00;99163.00;;;;2047342;28;20740;-55
2023/11/29 02:24:07;;;;;;;6.35;5.20;;;;;21.00;98792.00;;;;2060458;28;20217;-56
2023/11/29 02:25:07;;;;;;;6.20;5.20;;;;;21.00;99170.00;;;;2060839;28;20218;-56
2023/11/29 02:26:08;;;;;;;8.47;5.67;;;;;21.00;99162.00;;;;2066358;28;20754;-56
2023/11/29 02:27:09;;;;;;;6.47;5.37;;;;;21.00;99147.00;;;;2068995;28;21126;-56
2023/11/29 02:28:09;;;;;;;9.00;5.63;;;;;21.00;99170.00;;;;2070030;28;20245;-54
2023/11/29 02:29:10;;;;;;;6.73;5.60;;;;;21.00;99173.00;;;;2059889;28;20229;-55
2023/11/29 02:30:10;;;;;;;7.27;5.40;;;;;21.00;99164.00;;;;2066464;28;20219;-54
2023/11/29 02:31:11;;;;;;;6.10;5.03;;;;;21.00;99168.00;;;;2068932;28;20206;-54
2023/11/29 02:32:11;;;;;;;7.90;5.83;;;;;21.00;99162.00;;;;2061867;28;20664;-54
2023/11/29 02:33:12;;;;;;;6.97;5.37;;;;;21.00;99162.00;;;;2069066;28;20214;-55
2023/11/29 02:34:12;;;;;;;8.33;5.33;;;;;21.00;99165.00;;;;2060270;28;20229;-55
2023/11/29 02:35:12;;;;;;;6.67;5.00;;;;;21.00;99162.00;;;;2069955;28;20215;-54
2023/11/29 02:36:13;;;;;;;6.20;5.10;;;;;21.00;99159.00;;;;2068198;28;20309;-54
2023/11/29 02:37:13;;;;;;;6.40;4.37;;;;;21.00;99168.00;;;;2069146;28;20226;-55
2023/11/29 02:38:13;;;;;;;6.70;4.40;;;;;21.00;99169.00;;;;2069258;28;21419;-54
2023/11/29 02:39:14;;;;;;;7.20;4.50;;;;;20.90;99165.00;;;;2059924;28;20226;-54
2023/11/29 02:40:14;;;;;;;6.80;5.20;;;;;20.90;99172.00;;;;2069398;28;20217;-55
2023/11/29 02:41:14;;;;;;;7.33;5.17;;;;;21.00;99166.00;;;;2069840;28;20252;-55
2023/11/29 02:42:15;;;;;;;5.97;4.90;;;;;20.90;99167.00;;;;2069334;28;20218;-54
2023/11/29 02:43:15;;;;;;;6.60;4.90;;;;;20.90;99166.00;;;;2068706;28;20221;-54
2023/11/29 02:44:16;;;;;;;6.10;4.70;;;;;21.00;99164.00;;;;2060098;28;20305;-54
2023/11/29 02:45:16;;;;;;;6.33;4.97;;;;;21.00;99165.00;;;;2069146;28;20284;-54
2023/11/29 02:46:16;;;;;;;5.60;4.53;;;;;21.00;99166.00;;;;2069970;28;20625;-54
2023/11/29 02:47:17;;;;;;;5.73;4.50;;;;;20.90;99166.00;;;;2067329;28;20763;-54
2023/11/29 02:48:17;;;;;;;7.07;4.40;;;;;20.90;99168.00;;;;2068727;28;20222;-54
2023/11/29 02:49:18;;;;;;;6.70;4.97;;;;;21.00;99165.00;;;;2063061;28;20324;-55
2023/11/29 02:50:18;;;;;;;5.80;4.70;;;;;21.00;99163.00;;;;2073064;28;20222;-55
2023/11/29 02:51:19;;;;;;;6.30;4.90;;;;;20.90;99173.00;;;;2073564;28;20225;-54
2023/11/29 02:52:19;;;;;;;6.87;4.50;;;;;20.90;99167.00;;;;2068398;28;20222;-54
2023/11/29 02:53:19;;;;;;;4.87;3.87;;;;;20.90;99164.00;;;;2068394;28;20214;-54
2023/11/29 02:54:20;;;;;;;6.43;4.90;;;;;20.90;99160.00;;;;2060265;28;20230;-54
2023/11/29 02:55:22;;;;;;;5.30;4.10;;;;;20.90;99164.00;;;;2067447;28;20586;-54
2023/11/29 02:56:23;;;;;;;6.25;4.90;;;;;20.90;99168.00;;;;2067361;28;20214;-55
2023/11/29 02:57:23;;;;;;;6.17;4.40;;;;;20.90;99167.00;;;;2067414;28;20694;-54
2023/11/29 02:58:23;;;;;;;6.33;4.77;;;;;20.90;99177.00;;;;2068958;28;20715;-55
2023/11/29 02:59:24;;;;;;;5.30;4.63;;;;;20.90;99165.00;;;;2058531;28;22361;-54
2023/11/29 03:00:24;;;;;;;5.17;4.03;;;;;20.90;99161.00;;;;2069451;28;20225;-54
2023/11/29 03:01:25;;;;;;;5.40;4.43;;;;;20.90;99162.00;;;;2068354;28;20220;-54
2023/11/29 03:02:26;;;;;;;5.95;4.22;;;;;20.90;99169.00;;;;2068118;28;20222;-54
2023/11/29 03:03:26;;;;;;;6.53;4.80;;;;;20.90;99174.00;;;;2067773;28;22294;-54
2023/11/29 03:04:26;;;;;;;5.30;4.23;;;;;20.90;99170.00;;;;2067419;28;21837;-54
2023/11/29 03:05:27;;;;;;;5.17;4.37;;;;;20.80;99174.00;;;;2085166;28;20213;-54
2023/11/29 03:06:27;;;;;;;4.40;4.00;;;;;20.90;99171.00;;;;2075302;28;20221;-54
2023/11/29 03:07:27;;;;;;;5.40;4.17;;;;;20.90;99165.00;;;;2068791;28;20214;-54
2023/11/29 03:08:28;;;;;;;5.93;4.00;;;;;20.90;99170.00;;;;2069613;28;20307;-54
2023/11/29 03:09:28;;;;;;;5.70;4.37;;;;;20.80;99168.00;;;;2059495;28;20221;-54
2023/11/29 03:10:28;;;;;;;6.00;4.33;;;;;20.90;99156.00;;;;2060946;28;20735;-54
2023/11/29 03:11:29;;;;;;;5.83;4.50;;;;;20.90;99160.00;;;;2060418;28;20229;-54
2023/11/29 03:12:29;;;;;;;5.10;3.67;;;;;20.90;99165.00;;;;2069398;28;20233;-54
2023/11/29 03:13:29;;;;;;;6.23;3.97;;;;;20.90;99163.00;;;;2069013;28;20221;-55
2023/11/29 03:14:30;;;;;;;5.90;3.90;;;;;20.80;99151.00;;;;2063490;28;20658;-54
2023/11/29 03:15:30;;;;;;;4.40;3.57;;;;;20.90;99154.00;;;;2076024;28;20592;-54
2023/11/29 03:16:30;;;;;;;5.30;4.00;;;;;20.90;99162.00;;;;2071104;28;20278;-54
2023/11/29 03:17:31;;;;;;;5.97;4.30;;;;;20.80;99145.00;;;;2068693;28;20210;-54
2023/11/29 03:18:31;;;;;;;7.77;4.33;;;;;20.80;99170.00;;;;2068992;28;20214;-55
2023/11/29 03:19:31;;;;;;;5.70;4.20;;;;;20.80;99175.00;;;;2058000;28;20272;-54
2023/11/29 03:20:32;;;;;;;4.60;3.50;;;;;20.80;99184.00;;;;2068402;28;20683;-54
2023/11/29 03:21:44;;;;;;;5.10;4.00;;;;;20.80;99139.00;;;;2069520;28;20666;-54
2023/11/29 03:22:48;;;;;;;5.95;3.72;;;;;20.30;99145.00;;;;2061168;28;20256;-54
2023/11/29 03:23:49;;;;;;;4.55;3.33;;;;;20.80;99143.00;;;;2051834;28;20239;-54
2023/11/29 03:24:49;;;;;;;4.53;3.93;;;;;20.80;99135.00;;;;2049387;28;20218;-55
2023/11/29 03:25:50;;;;;;;4.70;3.33;;;;;20.80;99142.00;;;;2065100;28;20313;-54
2023/11/29 03:26:51;;;;;;;5.80;3.97;;;;;20.80;99130.00;;;;2068593;28;20241;-55
2023/11/29 03:27:53;;;;;;;4.50;3.40;;;;;20.80;99132.00;;;;2068762;28;20214;-54
2023/11/29 03:28:53;;;;;;;5.30;3.35;;;;;20.80;99131.00;;;;2060123;28;20489;-55
2023/11/29 03:29:55;;;;;;;5.10;3.90;;;;;20.80;99131.00;;;;2074903;28;20229;-55
2023/11/29 03:30:56;;;;;;;4.28;3.53;;;;;20.80;99127.00;;;;2075197;28;20213;-55
2023/11/29 03:31:56;;;;;;;5.10;3.70;;;;;20.80;99130.00;;;;2067848;28;20272;-54
2023/11/29 03:32:57;;;;;;;4.23;3.57;;;;;20.80;99131.00;;;;2069002;28;20210;-54
2023/11/29 03:33:57;;;;;;;6.43;3.63;;;;;20.80;99127.00;;;;2060196;28;20570;-55
2023/11/29 03:34:57;;;;;;;3.90;3.20;;;;;20.80;99119.00;;;;2068448;28;20241;-55
2023/11/29 03:35:58;;;;;;;3.50;3.20;;;;;20.80;99128.00;;;;2069310;28;20219;-55
2023/11/29 03:36:58;;;;;;;4.67;3.77;;;;;20.80;99123.00;;;;2068805;28;20214;-55
2023/11/29 03:37:58;;;;;;;4.33;3.60;;;;;20.80;99125.00;;;;2068859;28;20308;-54
2023/11/29 03:38:59;;;;;;;4.60;3.87;;;;;20.80;99121.00;;;;2053895;28;20214;-54
2023/11/29 03:39:59;;;;;;;4.40;3.30;;;;;20.80;99117.00;;;;2068635;28;20214;-55
2023/11/29 03:41:01;;;;;;;4.77;3.70;;;;;20.80;99094.00;;;;2068220;28;20210;-55
2023/11/29 03:42:02;;;;;;;5.28;3.80;;;;;20.80;99125.00;;;;2067673;28;20304;-55
2023/11/29 03:43:02;;;;;;;4.07;3.43;;;;;20.80;99119.00;;;;2068595;28;20222;-55
2023/11/29 03:44:02;;;;;;;4.10;3.27;;;;;20.80;99126.00;;;;2057514;28;20466;-54
2023/11/29 03:45:04;;;;;;;4.73;3.40;;;;;20.80;99115.00;;;;2067364;28;20217;-55
2023/11/29 03:46:04;;;;;;;3.85;3.13;;;;;20.80;99104.00;;;;2069896;28;20273;-56
2023/11/29 03:47:05;;;;;;;3.93;3.17;;;;;20.80;99105.00;;;;2066041;28;20221;-55
2023/11/29 03:48:05;;;;;;;3.57;3.27;;;;;20.80;99099.00;;;;2065381;28;20678;-55
2023/11/29 03:49:06;;;;;;;3.53;3.23;;;;;20.80;99085.00;;;;2063675;28;20225;-55
2023/11/29 03:50:07;;;;;;;4.38;3.60;;;;;20.80;99108.00;;;;2075671;28;20209;-56
2023/11/29 03:51:09;;;;;;;3.80;2.87;;;;;20.70;99083.00;;;;2067358;28;20262;-55
2023/11/29 03:52:09;;;;;;;4.07;3.13;;;;;20.80;99090.00;;;;2082841;28;20217;-55
2023/11/29 03:53:10;;;;;;;4.70;3.33;;;;;20.80;99094.00;;;;2075071;28;20291;-54
2023/11/29 03:54:10;;;;;;;3.80;3.37;;;;;20.80;99084.00;;;;2064748;28;20231;-54
2023/11/29 03:55:11;;;;;;;4.00;3.00;;;;;20.80;99095.00;;;;2073021;28;20210;-55
2023/11/29 03:56:11;;;;;;;3.77;3.00;;;;;20.80;99084.00;;;;2073928;28;20757;-55
2023/11/29 03:57:12;;;;;;;4.40;3.33;;;;;20.70;99083.00;;;;2068583;28;20214;-54
2023/11/29 03:58:12;;;;;;;4.10;2.73;;;;;20.70;99080.00;;;;2069128;28;20765;-54
2023/11/29 03:59:12;;;;;;;4.97;3.40;;;;;20.70;99072.00;;;;2053831;28;20640;-54
2023/11/29 04:00:13;;;;;;;4.37;3.20;;;;;20.70;99079.00;;;;2061197;28;20314;-55
2023/11/29 04:01:14;;;;;;;3.63;3.03;;;;;20.70;99076.00;;;;2068047;28;20234;-55
2023/11/29 04:02:14;;;;;;;4.83;3.77;;;;;20.70;99067.00;;;;2069613;28;20229;-55
2023/11/29 04:03:15;;;;;;;3.70;3.00;;;;;20.70;99072.00;;;;2069152;28;20218;-55
2023/11/29 04:04:15;;;;;;;4.33;3.27;;;;;20.70;99073.00;;;;2056857;28;20230;-57
2023/11/29 04:05:16;;;;;;;3.10;2.57;;;;;20.70;99067.00;;;;2067243;28;20222;-56
2023/11/29 04:06:24;;;;;;;3.40;2.90;;;;;20.70;99065.00;;;;2066962;28;20333;-55
2023/11/29 04:07:24;;;;;;;3.45;2.78;;;;;20.70;99060.00;;;;2062282;28;20210;-54
2023/11/29 04:08:25;;;;;;;3.30;2.83;;;;;20.70;99062.00;;;;2068958;28;20312;-55
2023/11/29 04:09:26;;;;;;;3.87;2.87;;;;;20.70;99055.00;;;;2059533;28;20234;-55
2023/11/29 04:10:26;;;;;;;3.90;2.90;;;;;20.70;99051.00;;;;2069425;28;20210;-55
2023/11/29 04:11:26;;;;;;;3.17;2.60;;;;;20.70;99051.00;;;;2067403;28;20261;-55
2023/11/29 04:12:27;;;;;;;3.73;3.33;;;;;20.70;99056.00;;;;2065295;28;20702;-54
2023/11/29 04:13:27;;;;;;;3.70;3.20;;;;;20.70;99032.00;;;;2068499;28;20769;-55
2023/11/29 04:14:27;;;;;;;3.53;2.97;;;;;20.70;99036.00;;;;2059677;28;20222;-55
2023/11/29 04:15:28;;;;;;;4.33;3.10;;;;;20.70;99029.00;;;;2068364;28;20313;-55
2023/11/29 04:16:28;;;;;;;4.17;2.90;;;;;20.60;99025.00;;;;2067530;28;20214;-55
2023/11/29 04:17:28;;;;;;;4.47;3.10;;;;;20.70;99034.00;;;;2068128;28;20245;-55
2023/11/29 04:18:29;;;;;;;3.73;2.83;;;;;20.70;99037.00;;;;2068839;28;20226;-55
2023/11/29 04:19:29;;;;;;;3.57;3.00;;;;;20.70;99030.00;;;;2060928;28;20257;-54
2023/11/29 04:20:29;;;;;;;3.70;3.20;;;;;20.70;99043.00;;;;2069263;28;20210;-55
2023/11/29 04:21:31;;;;;;;4.07;3.27;;;;;20.70;99028.00;;;;2070982;28;20265;-54
2023/11/29 04:22:31;;;;;;;2.92;2.63;;;;;20.70;99033.00;;;;2069971;28;20788;-55
2023/11/29 04:23:32;;;;;;;4.50;3.40;;;;;20.70;99027.00;;;;2065101;28;20218;-55
2023/11/29 04:24:33;;;;;;;3.77;3.00;;;;;20.70;99033.00;;;;2061170;28;20229;-55
2023/11/29 04:25:33;;;;;;;3.30;2.93;;;;;20.70;99025.00;;;;2069737;28;20218;-54
2023/11/29 04:26:35;;;;;;;3.13;2.60;;;;;20.70;99023.00;;;;2069257;28;20449;-55
2023/11/29 04:27:37;;;;;;;4.03;3.00;;;;;20.70;99017.00;;;;2061981;28;21864;-54
2023/11/29 04:28:37;;;;;;;3.80;2.75;;;;;20.70;99014.00;;;;2070646;28;20218;-56
2023/11/29 04:29:37;;;;;;;3.97;2.80;;;;;20.70;99014.00;;;;2059984;28;20300;-54
2023/11/29 04:30:38;;;;;;;3.40;2.87;;;;;20.70;99014.00;;;;2070873;28;20234;-54
2023/11/29 04:31:38;;;;;;;3.37;2.37;;;;;20.70;99016.00;;;;2069476;28;20229;-56
2023/11/29 04:32:43;;;;;;;3.53;2.77;;;;;20.70;99003.00;;;;2067858;28;20214;-55
2023/11/29 04:33:43;;;;;;;3.63;2.95;;;;;20.70;99004.00;;;;2065329;28;20210;-55
2023/11/29 04:34:43;;;;;;;3.30;2.97;;;;;20.70;99001.00;;;;2059613;28;20241;-55
2023/11/29 04:35:44;;;;;;;2.80;2.40;;;;;20.70;99003.00;;;;2067913;28;20245;-54
2023/11/29 04:36:44;;;;;;;3.23;2.40;;;;;20.70;98999.00;;;;2065786;28;20276;-55
2023/11/29 04:37:45;;;;;;;3.73;2.80;;;;;20.60;99002.00;;;;2070387;28;20209;-55
2023/11/29 04:38:45;;;;;;;4.20;2.58;;;;;20.70;98998.00;;;;2070162;28;20213;-55
2023/11/29 04:39:46;;;;;;;4.23;2.90;;;;;20.60;98993.00;;;;2065519;28;20233;-54
2023/11/29 04:40:46;;;;;;;2.10;1.90;;;;;20.70;98997.00;;;;2076295;28;20217;-54
2023/11/29 04:41:47;;;;;;;5.43;3.00;;;;;20.60;98990.00;;;;2070494;28;20217;-54
2023/11/29 04:42:47;;;;;;;3.10;2.50;;;;;20.60;98986.00;;;;2070595;28;20218;-55
2023/11/29 04:43:48;;;;;;;3.20;2.30;;;;;20.60;98979.00;;;;2070034;28;20224;-55
2023/11/29 04:44:48;;;;;;;3.27;2.40;;;;;20.60;99001.00;;;;2059962;28;20218;-54
2023/11/29 04:45:48;;;;;;;3.20;2.20;;;;;20.60;98993.00;;;;2070195;28;20281;-54
2023/11/29 04:46:48;;;;;;;3.77;2.63;;;;;20.60;99000.00;;;;2069249;28;20241;-55
2023/11/29 04:47:49;;;;;;;3.10;2.47;;;;;20.60;98997.00;;;;2070665;28;20221;-55
2023/11/29 04:48:49;;;;;;;3.27;2.40;;;;;20.60;98998.00;;;;2069887;28;20224;-56
2023/11/29 04:49:50;;;;;;;3.33;2.63;;;;;20.60;99013.00;;;;2073211;28;20219;-57
2023/11/29 04:50:50;;;;;;;3.23;2.50;;;;;20.60;98995.00;;;;2081536;28;20217;-59
2023/11/29 04:51:51;;;;;;;3.73;2.80;;;;;20.60;98995.00;;;;2071551;28;20605;-53
2023/11/29 04:52:51;;;;;;;3.00;2.50;;;;;20.60;98993.00;;;;2070510;28;20741;-54
2023/11/29 04:53:52;;;;;;;2.80;2.40;;;;;20.60;98999.00;;;;2062433;28;20217;-55
2023/11/29 04:54:53;;;;;;;3.70;2.58;;;;;20.60;98976.00;;;;2067053;28;20222;-55
2023/11/29 04:55:53;;;;;;;3.43;2.67;;;;;20.60;98985.00;;;;2065763;28;20317;-55
2023/11/29 04:56:53;;;;;;;2.73;2.47;;;;;20.60;98990.00;;;;2063119;28;20484;-55
2023/11/29 04:57:54;;;;;;;2.60;2.23;;;;;20.60;98997.00;;;;2068221;28;20198;-56
2023/11/29 04:58:55;;;;;;;3.50;2.43;;;;;20.60;98988.00;;;;2060897;28;20298;-56
2023/11/29 04:59:55;;;;;;;3.00;2.63;;;;;20.60;98980.00;;;;2070374;28;20456;-54
2023/11/29 05:00:56;;;;;;;2.97;2.40;;;;;20.60;98983.00;;;;2069804;28;20265;-55
2023/11/29 05:01:57;;;;;;;3.20;2.70;;;;;20.60;98980.00;;;;2070145;28;20484;-55